Aeroporto :
LOGIN :

Iscrizione | Disclaimer

   EN    FR    IT 

 










Sommario :    VFR   VFR Marginale   IFR   IFR Intensivo   IFR Molto Intensivo
Visibilità : 
Base nubi : 
>= 8 km
>= 3000ft
5 / 8 km
1000 / 3000 ft
1500m / 5 km
500 / 1000 ft
800 / 1500m
200 / 500 ft
< 800m
< 200 ft
Simboli :   Temporali  Nebbia  Neve Forte  Precipitazioni Forti  Vento > 20 kt
SIGMETs :   Varie  Temporali  Ghiacco  Turbolenza  Onda orograficha  Ceneri Vulcaniche






- Altitudine del aeroporto : 645 ft
- Codice IATA : DLE


LFGJ - Dole Tavaux

ULTIMO METAR :
  • 280130Z AUTO VRB02KT CAVOK 10/09 Q1021

METARs OBSOLETI :
  • 280100Z AUTO 00000KT CAVOK 12/10 Q1022
  • 280030Z AUTO 05002KT CAVOK 11/09 Q1022
  • 280000Z AUTO 35005KT CAVOK 12/10 Q1022
  • 272330Z AUTO 02003KT CAVOK 12/10 Q1023
  • 272300Z AUTO 02003KT 330V040 CAVOK 12/10 Q1023

Previsioni scadute.



MetMap, La meteo Aeronautica in un colpo d'occhio ! - Copyright ORBIFLY Dicembre 2007 - Disclaimer

ORBIFLY MET'MAP TEAM :

Programmazione e sviluppo : Alexandra Zaïnal
Concezione : Baudouin d'Aumeries
Supporto tecnico e logistico : Manuel Goepfert
Aiuto : Marc-Olivier Méhu
Aiuto per la traduzione : Arnaldo La Scala

Contatto : metmap@orbifly.com




FONTI E CREDITI :

   NOAA